createdAt,value
2023-04-20T00:00:58.353Z,7.20
2023-04-20T00:03:26.570Z,6.70
2023-04-20T00:05:53.494Z,5.47
2023-04-20T00:08:19.990Z,6.15
2023-04-20T00:10:46.907Z,7.65
2023-04-20T00:13:13.393Z,7.65
2023-04-20T00:15:39.851Z,8.23
2023-04-20T00:18:06.559Z,6.53
2023-04-20T00:20:33.456Z,8.40
2023-04-20T00:22:59.885Z,7.97
2023-04-20T00:25:26.380Z,8.60
2023-04-20T00:27:52.818Z,8.68
2023-04-20T00:30:19.312Z,7.60
2023-04-20T00:32:45.797Z,7.78
2023-04-20T00:35:13.077Z,13.35
2023-04-20T00:37:40.874Z,10.95
2023-04-20T00:40:07.921Z,9.82
2023-04-20T00:42:34.659Z,8.95
2023-04-20T00:45:01.278Z,10.52
2023-04-20T00:47:27.769Z,12.00
2023-04-20T00:49:54.859Z,9.13
2023-04-20T00:52:21.350Z,8.45
2023-04-20T00:54:47.858Z,9.50
2023-04-20T00:57:18.660Z,10.50
2023-04-20T00:59:45.311Z,14.18
2023-04-20T01:02:12.075Z,9.43
2023-04-20T01:04:41.256Z,7.93
2023-04-20T01:07:07.718Z,11.80
2023-04-20T01:09:34.199Z,11.10
2023-04-20T01:12:01.682Z,10.13
2023-04-20T01:14:28.164Z,12.30
2023-04-20T01:16:56.368Z,12.63
2023-04-20T01:19:22.913Z,10.65
2023-04-20T01:21:49.420Z,11.70
2023-04-20T01:24:15.985Z,13.13
2023-04-20T01:26:42.444Z,11.50
2023-04-20T01:29:08.893Z,16.38
2023-04-20T01:31:35.674Z,12.50
2023-04-20T01:34:02.209Z,10.10
2023-04-20T01:36:28.752Z,14.27
2023-04-20T01:38:56.015Z,12.80
2023-04-20T01:41:22.550Z,13.13
2023-04-20T01:43:49.058Z,13.40
2023-04-20T01:46:15.629Z,14.65
2023-04-20T01:48:42.191Z,11.75
2023-04-20T01:51:09.564Z,13.93
2023-04-20T01:53:36.059Z,11.80
2023-04-20T01:56:02.561Z,14.63
2023-04-20T01:58:29.253Z,10.60
2023-04-20T02:00:55.985Z,10.70
2023-04-20T02:03:22.674Z,12.40
2023-04-20T02:05:49.470Z,15.25
2023-04-20T02:08:15.957Z,16.10
2023-04-20T02:10:42.438Z,13.88
2023-04-20T02:13:08.998Z,12.82
2023-04-20T02:15:35.593Z,13.07
2023-04-20T02:18:02.151Z,15.48
2023-04-20T02:20:28.669Z,12.80
2023-04-20T02:22:55.232Z,14.60
2023-04-20T02:25:21.885Z,16.13
2023-04-20T02:27:48.357Z,18.33
2023-04-20T02:30:14.937Z,15.85
2023-04-20T02:32:42.548Z,18.52
2023-04-20T02:35:09.485Z,15.05
2023-04-20T02:37:36.009Z,15.43
2023-04-20T02:40:05.055Z,14.55
2023-04-20T02:42:31.632Z,17.25
2023-04-20T02:44:59.572Z,15.45
2023-04-20T02:47:26.392Z,12.38
2023-04-20T02:49:54.386Z,13.30
2023-04-20T02:52:20.886Z,13.95
2023-04-20T02:54:47.473Z,12.48
2023-04-20T02:57:14.122Z,14.60
2023-04-20T02:59:41.022Z,14.85
2023-04-20T03:02:16.391Z,14.75
2023-04-20T03:04:43.062Z,14.60
2023-04-20T03:07:17.815Z,15.82
2023-04-20T03:09:44.980Z,16.38
2023-04-20T03:12:37.274Z,14.68
2023-04-20T03:15:28.898Z,17.92
2023-04-20T03:18:02.008Z,14.85
2023-04-20T03:20:29.399Z,18.25
2023-04-20T03:22:56.017Z,17.23
2023-04-20T03:25:24.531Z,16.60
2023-04-20T03:27:54.541Z,20.45
2023-04-20T03:30:21.597Z,18.65
2023-04-20T03:32:53.797Z,18.83
2023-04-20T03:35:21.014Z,15.95
2023-04-20T03:37:47.801Z,17.02
2023-04-20T03:40:15.472Z,18.08
2023-04-20T03:42:41.928Z,17.88
2023-04-20T03:45:08.840Z,17.58
2023-04-20T03:47:35.393Z,18.05
2023-04-20T03:50:01.908Z,19.92
2023-04-20T03:52:28.676Z,17.38
2023-04-20T03:54:58.367Z,18.98
2023-04-20T03:57:24.939Z,19.63
2023-04-20T03:59:51.662Z,19.85
2023-04-20T04:02:22.602Z,18.40
2023-04-20T04:04:50.981Z,18.77
2023-04-20T04:07:17.591Z,17.52
2023-04-20T04:09:44.122Z,18.10
2023-04-20T04:12:12.312Z,17.25
2023-04-20T04:14:39.352Z,19.27
2023-04-20T04:17:07.967Z,21.90
2023-04-20T04:19:37.095Z,17.30
2023-04-20T04:22:04.168Z,18.02
2023-04-20T04:24:37.766Z,18.38
2023-04-20T04:27:07.512Z,17.85
2023-04-20T04:29:39.214Z,21.02
2023-04-20T04:32:11.861Z,19.10
2023-04-20T04:34:39.040Z,17.65
2023-04-20T04:37:05.553Z,18.08
2023-04-20T04:39:41.267Z,17.42
2023-04-20T04:42:15.124Z,15.32
2023-04-20T04:44:43.551Z,17.80
2023-04-20T04:47:14.252Z,17.88
2023-04-20T04:49:40.817Z,17.73
2023-04-20T04:52:08.577Z,18.05
2023-04-20T04:54:35.576Z,19.52
2023-04-20T04:57:02.613Z,17.92
2023-04-20T04:59:29.101Z,18.80
2023-04-20T05:01:55.739Z,17.98
2023-04-20T05:04:22.523Z,18.67
2023-04-20T05:06:49.027Z,19.30
2023-04-20T05:09:16.367Z,20.40
2023-04-20T05:11:43.035Z,23.33
2023-04-20T05:14:09.618Z,20.35
2023-04-20T05:16:36.250Z,20.63
2023-04-20T05:19:02.794Z,20.80
2023-04-20T05:21:29.271Z,23.10
2023-04-20T05:23:55.736Z,21.73
2023-04-20T05:26:22.208Z,25.52
2023-04-20T05:28:48.696Z,20.02
2023-04-20T05:31:15.812Z,20.80
2023-04-20T05:33:42.366Z,20.52
2023-04-20T05:36:10.277Z,19.83
2023-04-20T05:38:36.806Z,21.05
2023-04-20T05:41:03.289Z,21.13
2023-04-20T05:43:29.801Z,19.33
2023-04-20T05:45:56.294Z,23.77
2023-04-20T05:48:22.781Z,20.33
2023-04-20T05:50:49.280Z,19.42
2023-04-20T05:53:15.889Z,20.23
2023-04-20T05:55:42.421Z,21.58
2023-04-20T05:58:08.987Z,19.55
2023-04-20T06:00:35.667Z,18.25
2023-04-20T06:03:02.297Z,17.02
2023-04-20T06:05:29.049Z,17.13
2023-04-20T06:07:55.752Z,19.05
2023-04-20T06:10:22.293Z,23.55
2023-04-20T06:12:48.795Z,23.92
2023-04-20T06:15:15.416Z,20.88
2023-04-20T06:17:42.011Z,18.80
2023-04-20T06:20:11.746Z,20.55
2023-04-20T06:22:45.450Z,18.77
2023-04-20T06:25:12.635Z,14.00
2023-04-20T06:27:39.630Z,17.50
2023-04-20T06:30:06.624Z,17.08
2023-04-20T06:32:33.166Z,15.15
2023-04-20T06:34:59.845Z,19.35
2023-04-20T06:37:26.332Z,12.88
2023-04-20T06:39:56.050Z,13.20
2023-04-20T06:42:22.717Z,12.70
2023-04-20T06:44:50.131Z,13.07
2023-04-20T06:47:16.587Z,12.27
2023-04-20T06:49:43.453Z,10.60
2023-04-20T06:52:10.433Z,10.85
2023-04-20T06:54:39.524Z,12.27
2023-04-20T06:57:06.207Z,9.60
2023-04-20T06:59:33.247Z,11.82
2023-04-20T07:01:59.880Z,11.88
2023-04-20T07:04:26.812Z,12.25
2023-04-20T07:06:54.336Z,10.75
2023-04-20T07:09:21.102Z,9.20
2023-04-20T07:11:47.607Z,12.07
2023-04-20T07:14:14.393Z,9.75
2023-04-20T07:16:41.018Z,9.05
2023-04-20T07:19:07.680Z,8.88
2023-04-20T07:21:35.575Z,9.60
2023-04-20T07:24:02.237Z,10.40
2023-04-20T07:26:28.821Z,10.10
2023-04-20T07:28:55.433Z,17.80
2023-04-20T07:31:22.003Z,14.63
2023-04-20T07:33:48.563Z,16.42
2023-04-20T07:36:15.101Z,12.48
2023-04-20T07:38:41.578Z,14.48
2023-04-20T07:41:11.261Z,13.85
2023-04-20T07:43:38.907Z,17.00
2023-04-20T07:46:05.686Z,17.95
2023-04-20T07:48:36.504Z,19.05
2023-04-20T07:51:03.112Z,15.90
2023-04-20T07:53:29.684Z,15.25
2023-04-20T07:58:22.926Z,13.27
2023-04-20T08:00:49.478Z,10.60
2023-04-20T08:03:16.273Z,11.15
2023-04-20T08:05:43.102Z,9.50
2023-04-20T08:08:09.647Z,12.60
2023-04-20T08:10:36.471Z,10.45
2023-04-20T08:13:03.000Z,15.25
2023-04-20T08:15:29.538Z,12.68
2023-04-20T08:17:56.759Z,14.70
2023-04-20T08:20:23.238Z,11.52
2023-04-20T08:22:50.655Z,11.93
2023-04-20T08:25:17.184Z,12.88
2023-04-20T08:27:43.658Z,13.13
2023-04-20T08:30:10.522Z,13.52
2023-04-20T08:32:37.103Z,12.98
2023-04-20T08:35:04.893Z,13.35
2023-04-20T08:37:32.943Z,13.65
2023-04-20T08:39:59.708Z,13.30
2023-04-20T08:42:29.631Z,12.07
2023-04-20T08:44:58.481Z,11.18
2023-04-20T08:47:25.936Z,9.20
2023-04-20T08:49:54.207Z,8.90
2023-04-20T08:52:20.713Z,9.43
2023-04-20T08:54:55.951Z,9.68
2023-04-20T08:57:24.793Z,10.00
2023-04-20T08:59:51.835Z,7.88
2023-04-20T09:02:18.401Z,7.55
2023-04-20T09:04:48.997Z,7.63
2023-04-20T09:07:20.467Z,8.35
2023-04-20T09:09:54.847Z,9.70
2023-04-20T09:12:22.751Z,10.68
2023-04-20T09:14:49.501Z,10.35
2023-04-20T09:17:17.773Z,11.43
2023-04-20T09:19:45.985Z,11.45
2023-04-20T09:22:12.782Z,11.15
2023-04-20T09:24:41.182Z,10.68
2023-04-20T09:27:18.121Z,11.20
2023-04-20T09:29:45.364Z,10.55
2023-04-20T09:32:22.757Z,9.95
2023-04-20T09:34:49.822Z,9.38
2023-04-20T09:37:19.178Z,8.15
2023-04-20T09:39:46.404Z,8.60
2023-04-20T09:42:14.656Z,8.88
2023-04-20T09:44:41.592Z,10.55
2023-04-20T09:47:09.649Z,9.52
2023-04-20T09:49:41.398Z,9.40
2023-04-20T09:52:08.281Z,10.55
2023-04-20T09:54:37.005Z,10.13
2023-04-20T09:57:04.600Z,9.25
2023-04-20T09:59:33.323Z,9.27
2023-04-20T10:01:59.999Z,10.52
2023-04-20T10:04:26.895Z,10.27
2023-04-20T10:06:55.805Z,8.65
2023-04-20T10:09:24.439Z,9.07
2023-04-20T10:11:54.376Z,8.82
2023-04-20T10:14:26.113Z,9.18
2023-04-20T10:17:06.568Z,9.68
2023-04-20T10:19:43.378Z,9.48
2023-04-20T10:22:11.868Z,9.48
2023-04-20T10:24:38.634Z,9.38
2023-04-20T10:27:19.293Z,10.15
2023-04-20T10:29:45.768Z,10.18
2023-04-20T10:32:23.196Z,9.57
2023-04-20T10:35:01.043Z,10.25
2023-04-20T10:37:27.800Z,10.05
2023-04-20T10:39:54.472Z,10.82
2023-04-20T10:42:21.004Z,12.18
2023-04-20T10:44:56.602Z,12.07
2023-04-20T10:47:30.467Z,11.70
2023-04-20T10:50:11.608Z,11.75
2023-04-20T10:52:39.946Z,12.20
2023-04-20T10:55:17.804Z,12.40
2023-04-20T10:57:47.945Z,12.02
2023-04-20T11:00:20.344Z,12.40
2023-04-20T11:02:49.100Z,13.18
2023-04-20T11:05:16.424Z,14.65
2023-04-20T11:08:00.010Z,12.00
2023-04-20T11:10:40.063Z,12.25
2023-04-20T11:13:06.907Z,12.75
2023-04-20T11:15:34.342Z,11.63
2023-04-20T11:18:08.081Z,11.88
2023-04-20T11:20:34.982Z,11.98
2023-04-20T11:23:01.486Z,11.35
2023-04-20T11:25:28.107Z,12.00
2023-04-20T11:28:04.969Z,11.43
2023-04-20T11:30:41.998Z,11.23
2023-04-20T11:33:09.742Z,12.02
2023-04-20T11:35:38.428Z,10.75
2023-04-20T11:38:04.915Z,11.25
2023-04-20T11:40:31.422Z,10.70
2023-04-20T11:42:58.434Z,10.88
2023-04-20T11:45:25.156Z,11.23
2023-04-20T11:47:52.690Z,10.70
2023-04-20T11:50:19.321Z,11.23
2023-04-20T11:52:45.825Z,11.32
2023-04-20T11:55:12.508Z,10.77
2023-04-20T11:57:39.515Z,12.30
2023-04-20T12:00:07.185Z,11.88
2023-04-20T12:02:41.169Z,12.38
2023-04-20T12:05:08.589Z,12.05
2023-04-20T12:07:35.420Z,12.35
2023-04-20T12:10:01.884Z,11.93
2023-04-20T12:12:28.368Z,12.07
2023-04-20T12:14:54.828Z,11.07
2023-04-20T12:17:21.339Z,12.18
2023-04-20T12:19:47.842Z,10.27
2023-04-20T12:22:14.308Z,10.85
2023-04-20T12:24:40.924Z,10.73
2023-04-20T12:27:07.423Z,10.68
2023-04-20T12:29:34.029Z,11.50
2023-04-20T12:32:00.667Z,13.23
2023-04-20T12:34:27.231Z,11.63
2023-04-20T12:36:53.666Z,11.25
2023-04-20T12:39:20.766Z,12.43
2023-04-20T12:41:47.248Z,12.52
2023-04-20T12:44:13.761Z,11.52
2023-04-20T12:46:40.440Z,12.57
2023-04-20T12:49:06.915Z,12.25
2023-04-20T12:51:33.438Z,12.52
2023-04-20T12:54:00.113Z,12.45
2023-04-20T12:56:26.813Z,12.80
2023-04-20T12:58:53.459Z,17.45
2023-04-20T13:01:20.028Z,12.85
2023-04-20T13:03:46.800Z,13.55
2023-04-20T13:06:14.631Z,12.23
2023-04-20T13:08:41.366Z,15.07
2023-04-20T13:11:08.501Z,10.75
2023-04-20T13:13:34.988Z,11.77
2023-04-20T13:16:01.512Z,18.63
2023-04-20T13:18:28.230Z,11.95
2023-04-20T13:20:54.831Z,15.93
2023-04-20T13:23:21.367Z,12.27
2023-04-20T13:25:47.879Z,13.57
2023-04-20T13:28:14.945Z,11.80
2023-04-20T13:30:41.590Z,10.70
2023-04-20T13:33:08.211Z,10.25
2023-04-20T13:35:34.764Z,11.63
2023-04-20T13:38:01.316Z,11.00
2023-04-20T13:40:27.934Z,10.85
2023-04-20T13:42:54.511Z,12.32
2023-04-20T13:45:21.167Z,11.20
2023-04-20T13:47:47.647Z,13.57
2023-04-20T13:50:14.284Z,14.52
2023-04-20T13:52:41.020Z,11.80
2023-04-20T13:55:07.782Z,11.70
2023-04-20T13:57:35.697Z,13.93
2023-04-20T14:00:02.240Z,12.38
2023-04-20T14:02:32.512Z,11.85
2023-04-20T14:04:59.073Z,13.38
2023-04-20T14:07:25.613Z,13.38
2023-04-20T14:09:56.259Z,13.60
2023-04-20T14:12:23.098Z,15.05
2023-04-20T14:14:49.663Z,14.93
2023-04-20T14:17:16.111Z,15.85
2023-04-20T14:19:42.614Z,14.13
2023-04-20T14:22:09.118Z,15.88
2023-04-20T14:24:35.671Z,15.77
2023-04-20T14:27:02.126Z,17.42
2023-04-20T14:29:28.616Z,17.50
2023-04-20T14:31:55.212Z,16.17
2023-04-20T14:34:21.788Z,21.10
2023-04-20T14:36:48.274Z,18.42
2023-04-20T14:39:14.799Z,19.23
2023-04-20T14:41:41.602Z,23.27
2023-04-20T14:44:08.120Z,22.80
2023-04-20T14:46:34.649Z,23.15
2023-04-20T14:49:01.328Z,22.38
2023-04-20T14:51:28.246Z,21.58
2023-04-20T14:53:54.735Z,21.17
2023-04-20T14:56:21.183Z,22.60
2023-04-20T14:58:48.055Z,21.98
2023-04-20T15:01:14.863Z,29.10
2023-04-20T15:03:41.623Z,29.52
2023-04-20T15:06:08.379Z,27.73
2023-04-20T15:08:35.455Z,29.20
2023-04-20T15:11:03.900Z,27.83
2023-04-20T15:13:30.654Z,26.58
2023-04-20T15:15:57.139Z,31.85
2023-04-20T15:18:23.710Z,29.65
2023-04-20T15:20:53.122Z,29.70
2023-04-20T15:23:19.866Z,30.45
2023-04-20T15:25:46.350Z,30.33
2023-04-20T15:28:12.906Z,30.83
2023-04-20T15:30:39.426Z,32.03
2023-04-20T15:33:06.124Z,30.48
2023-04-20T15:35:33.408Z,29.48
2023-04-20T15:37:59.913Z,31.20
2023-04-20T15:40:27.421Z,31.13
2023-04-20T15:42:55.768Z,32.33
2023-04-20T15:45:22.939Z,30.25
2023-04-20T15:47:49.648Z,32.28
2023-04-20T15:50:16.373Z,34.08
2023-04-20T15:52:43.163Z,32.67
2023-04-20T15:55:12.937Z,32.97
2023-04-20T15:57:39.478Z,34.40
2023-04-20T16:00:08.003Z,37.13
2023-04-20T16:02:37.023Z,37.85
2023-04-20T16:05:04.306Z,36.42
2023-04-20T16:07:30.914Z,40.03
2023-04-20T16:09:57.398Z,35.20
2023-04-20T16:12:24.043Z,35.47
2023-04-20T16:14:51.819Z,37.20
2023-04-20T16:17:20.200Z,34.20
2023-04-20T16:19:46.810Z,35.70
2023-04-20T16:22:14.310Z,38.65
2023-04-20T16:24:40.880Z,38.38
2023-04-20T16:27:07.542Z,33.65
2023-04-20T16:29:34.168Z,34.20
2023-04-20T16:32:00.835Z,35.25
2023-04-20T16:34:27.483Z,32.55
2023-04-20T16:36:54.151Z,34.10
2023-04-20T16:39:20.709Z,35.30
2023-04-20T16:41:47.359Z,31.98
2023-04-20T16:44:14.474Z,32.28
2023-04-20T16:46:42.017Z,34.35
2023-04-20T16:49:09.177Z,33.65
2023-04-20T16:51:35.680Z,30.80
2023-04-20T16:54:02.295Z,32.65
2023-04-20T16:56:28.794Z,33.45
2023-04-20T16:58:55.491Z,29.73
2023-04-20T17:01:22.207Z,30.88
2023-04-20T17:03:48.780Z,29.60
2023-04-20T17:06:15.433Z,31.30
2023-04-20T17:08:42.053Z,31.02
2023-04-20T17:11:08.512Z,31.33
2023-04-20T17:13:35.000Z,31.40
2023-04-20T17:16:01.579Z,33.95
2023-04-20T17:18:28.109Z,32.25
2023-04-20T17:20:57.137Z,28.80
2023-04-20T17:23:23.751Z,31.25
2023-04-20T17:25:51.281Z,32.20
2023-04-20T17:28:17.875Z,36.05
2023-04-20T17:30:44.408Z,32.50
2023-04-20T17:33:12.340Z,32.28
2023-04-20T17:35:39.406Z,32.97
2023-04-20T17:38:05.973Z,34.63
2023-04-20T17:40:33.034Z,32.78
2023-04-20T17:42:59.750Z,35.53
2023-04-20T17:45:26.237Z,33.85
2023-04-20T17:47:53.747Z,34.35
2023-04-20T17:50:20.702Z,36.45
2023-04-20T17:52:47.192Z,36.75
2023-04-20T17:55:13.914Z,37.65
2023-04-20T17:57:40.580Z,33.50
2023-04-20T18:00:08.605Z,38.97
2023-04-20T18:02:38.538Z,37.65
2023-04-20T18:05:06.022Z,35.28
2023-04-20T18:07:32.571Z,37.60
2023-04-20T18:09:59.062Z,39.60
2023-04-20T18:12:25.545Z,35.92
2023-04-20T18:14:52.057Z,41.63
2023-04-20T18:17:18.530Z,38.78
2023-04-20T18:19:45.028Z,38.28
2023-04-20T18:22:11.526Z,38.08
2023-04-20T18:24:38.225Z,42.53
2023-04-20T18:27:04.715Z,40.38
2023-04-20T18:29:31.433Z,39.80
2023-04-20T18:32:01.072Z,41.35
2023-04-20T18:34:30.937Z,44.17
2023-04-20T18:36:58.057Z,44.03
2023-04-20T18:39:25.202Z,46.05
2023-04-20T18:41:51.710Z,46.28
2023-04-20T18:44:18.506Z,47.38
2023-04-20T18:46:45.407Z,46.00
2023-04-20T18:49:12.003Z,45.72
2023-04-20T18:51:38.489Z,46.67
2023-04-20T18:54:05.134Z,49.22
2023-04-20T18:56:32.204Z,48.60
2023-04-20T18:58:59.500Z,49.55
2023-04-20T19:01:26.288Z,47.95
2023-04-20T19:03:53.170Z,45.10
2023-04-20T19:06:19.798Z,48.38
2023-04-20T19:08:46.370Z,47.28
2023-04-20T19:11:12.888Z,48.67
2023-04-20T19:13:44.328Z,49.58
2023-04-20T19:16:12.119Z,49.67
2023-04-20T19:18:39.019Z,49.60
2023-04-20T19:21:05.673Z,51.50
2023-04-20T19:23:32.169Z,49.97
2023-04-20T19:25:58.646Z,52.95
2023-04-20T19:28:25.176Z,50.17
2023-04-20T19:30:51.757Z,52.75
2023-04-20T19:33:18.329Z,53.90
2023-04-20T19:35:50.592Z,53.90
2023-04-20T19:38:21.431Z,48.97
2023-04-20T19:40:48.464Z,54.58
2023-04-20T19:43:16.798Z,54.50
2023-04-20T19:45:43.341Z,54.97
2023-04-20T19:48:10.009Z,56.10
2023-04-20T19:50:36.563Z,55.20
2023-04-20T19:53:03.066Z,51.78
2023-04-20T19:55:29.640Z,58.35
2023-04-20T19:57:56.142Z,54.47
2023-04-20T20:00:22.660Z,56.30
2023-04-20T20:02:49.314Z,52.40
2023-04-20T20:05:15.902Z,54.88
2023-04-20T20:07:42.515Z,55.03
2023-04-20T20:10:09.020Z,53.15
2023-04-20T20:12:35.517Z,55.72
2023-04-20T20:15:03.607Z,57.17
2023-04-20T20:17:30.234Z,52.38
2023-04-20T20:19:56.762Z,53.88
2023-04-20T20:22:23.254Z,54.95
2023-04-20T20:24:51.917Z,55.20
2023-04-20T20:27:18.393Z,56.75
2023-04-20T20:29:44.928Z,53.47
2023-04-20T20:32:11.432Z,49.85
2023-04-20T20:34:37.936Z,52.05
2023-04-20T20:37:04.544Z,47.28
2023-04-20T20:39:32.324Z,52.70
2023-04-20T20:41:59.626Z,53.33
2023-04-20T20:44:27.841Z,51.97
2023-04-20T20:46:54.439Z,50.05
2023-04-20T20:49:21.133Z,54.38
2023-04-20T20:51:47.651Z,53.70
2023-04-20T20:54:14.176Z,50.72
2023-04-20T20:56:40.688Z,49.42
2023-04-20T20:59:07.212Z,51.60
2023-04-20T21:01:33.698Z,49.97
2023-04-20T21:04:00.423Z,50.08
2023-04-20T21:06:27.377Z,44.78
2023-04-20T21:08:54.668Z,51.75
2023-04-20T21:11:21.292Z,43.83
2023-04-20T21:13:47.867Z,49.13
2023-04-20T21:16:14.463Z,49.03
2023-04-20T21:18:41.384Z,45.67
2023-04-20T21:21:12.317Z,50.08
2023-04-20T21:23:38.856Z,49.80
2023-04-20T21:26:05.307Z,50.03
2023-04-20T21:28:32.723Z,53.90
2023-04-20T21:30:59.222Z,54.45
2023-04-20T21:33:25.806Z,49.45
2023-04-20T21:35:52.659Z,50.80
2023-04-20T21:38:19.196Z,48.33
2023-04-20T21:40:45.789Z,50.55
2023-04-20T21:43:12.287Z,52.78
2023-04-20T21:45:38.780Z,49.35
2023-04-20T21:48:05.722Z,47.00
2023-04-20T21:50:32.328Z,51.35
2023-04-20T21:52:58.845Z,48.30
2023-04-20T21:55:25.589Z,47.33
2023-04-20T21:57:52.076Z,45.58
2023-04-20T22:00:18.721Z,43.35
2023-04-20T22:02:45.588Z,46.90
2023-04-20T22:05:13.648Z,46.15
2023-04-20T22:07:40.332Z,45.20
2023-04-20T22:10:07.688Z,42.40
2023-04-20T22:12:39.819Z,42.35
2023-04-20T22:15:13.969Z,44.30
2023-04-20T22:20:09.676Z,36.63
2023-04-20T22:22:36.690Z,41.05
2023-04-20T22:25:04.770Z,37.97
2023-04-20T22:27:32.318Z,34.35
2023-04-20T22:29:59.051Z,37.30
2023-04-20T22:32:25.633Z,37.15
2023-04-20T22:34:52.136Z,37.55
2023-04-20T22:37:18.835Z,40.20
2023-04-20T22:39:45.539Z,38.33
2023-04-20T22:42:12.332Z,44.67
2023-04-20T22:44:38.996Z,35.95
2023-04-20T22:47:05.871Z,38.72
2023-04-20T22:49:32.708Z,36.35
2023-04-20T22:51:59.281Z,35.15
2023-04-20T22:54:25.805Z,40.63
2023-04-20T22:56:52.354Z,37.60
2023-04-20T22:59:19.664Z,37.90
2023-04-20T23:01:46.466Z,40.83
2023-04-20T23:04:13.047Z,41.30
2023-04-20T23:06:43.679Z,40.10
2023-04-20T23:09:12.382Z,37.25
2023-04-20T23:11:39.710Z,41.90
2023-04-20T23:14:07.422Z,44.38
2023-04-20T23:16:34.420Z,41.95
2023-04-20T23:19:01.171Z,39.35
2023-04-20T23:21:28.540Z,41.20
2023-04-20T23:23:58.582Z,46.28
2023-04-20T23:26:25.209Z,42.45
2023-04-20T23:28:52.456Z,42.30
2023-04-20T23:31:20.094Z,45.88
2023-04-20T23:33:47.160Z,43.22
2023-04-20T23:36:13.717Z,44.30
2023-04-20T23:38:40.466Z,49.92
2023-04-20T23:41:10.875Z,43.33
2023-04-20T23:43:41.150Z,44.28
2023-04-20T23:46:08.382Z,45.88
2023-04-20T23:48:35.017Z,43.00
2023-04-20T23:51:01.705Z,44.15
2023-04-20T23:53:28.260Z,46.60
2023-04-20T23:55:59.749Z,45.65
2023-04-20T23:58:27.732Z,45.97
